Time,TemperatureF,DewpointF,PressureIn,WindDirection,WindDirectionDegrees,WindSpeedMPH,WindSpeedGustMPH,Humidity,HourlyPrecipIn,Conditions,Clouds,dailyrainin,SoftwareType,DateUTC
2013-06-22 00:06:00,70.9,56.8,30.07,WSW,247,7.3,-999.0,61,-99.99,,,0.00,Acu-Link.com,2013-06-22 04:06:00,
2013-06-22 00:21:00,70.5,55.9,30.08,West,270,4.2,-999.0,60,-99.99,,,0.00,Acu-Link.com,2013-06-22 04:21:00,
2013-06-22 00:36:00,70.3,54.8,30.08,West,270,3.7,-999.0,58,-99.99,,,0.00,Acu-Link.com,2013-06-22 04:36:00,
2013-06-22 00:52:00,70.3,52.9,30.07,West,270,4.2,-999.0,54,-99.99,,,0.00,Acu-Link.com,2013-06-22 04:52:00,
2013-06-22 01:07:00,70.0,52.1,30.07,West,270,1.1,-999.0,53,-99.99,,,0.00,Acu-Link.com,2013-06-22 05:07:00,
2013-06-22 01:22:00,70.0,52.1,30.07,West,270,3.7,-999.0,53,-99.99,,,0.00,Acu-Link.com,2013-06-22 05:22:00,
2013-06-22 01:37:00,69.6,52.2,30.08,WSW,247,4.2,-999.0,54,-99.99,,,0.00,Acu-Link.com,2013-06-22 05:37:00,
2013-06-22 01:53:00,69.4,52.0,30.07,West,270,5.3,-999.0,54,-99.99,,,0.00,Acu-Link.com,2013-06-22 05:53:00,
2013-06-22 02:08:00,68.9,54.0,30.07,WSW,247,4.7,-999.0,59,-99.99,,,0.00,Acu-Link.com,2013-06-22 06:08:00,
2013-06-22 02:23:00,68.7,53.8,30.07,West,270,5.8,-999.0,59,-99.99,,,0.00,Acu-Link.com,2013-06-22 06:23:00,
2013-06-22 02:38:00,68.7,53.3,30.07,NNE,22,2.7,-999.0,58,-99.99,,,0.00,Acu-Link.com,2013-06-22 06:38:00,
2013-06-22 02:54:00,68.4,54.0,30.07,NE,45,3.7,-999.0,60,-99.99,,,0.00,Acu-Link.com,2013-06-22 06:54:00,
2013-06-22 03:09:00,68.2,54.7,30.07,West,270,3.7,-999.0,62,-99.99,,,0.00,Acu-Link.com,2013-06-22 07:09:00,
2013-06-22 03:24:00,68.2,53.8,30.08,WNW,292,4.2,-999.0,60,-99.99,,,0.00,Acu-Link.com,2013-06-22 07:24:00,
2013-06-22 03:39:00,68.0,53.1,30.07,SW,225,3.2,-999.0,59,-99.99,,,0.00,Acu-Link.com,2013-06-22 07:39:00,
2013-06-22 03:54:00,67.8,52.9,30.06,NNE,22,5.8,-999.0,59,-99.99,,,0.00,Acu-Link.com,2013-06-22 07:54:00,
2013-06-22 04:10:00,67.8,52.9,30.06,North,0,4.7,-999.0,59,-99.99,,,0.00,Acu-Link.com,2013-06-22 08:10:00,
2013-06-22 04:26:00,67.6,52.8,30.07,North,0,1.1,-999.0,59,-99.99,,,0.00,Acu-Link.com,2013-06-22 08:26:00,
2013-06-22 04:41:00,67.6,52.8,30.06,West,270,4.2,-999.0,59,-99.99,,,0.00,Acu-Link.com,2013-06-22 08:41:00,
2013-06-22 04:56:00,67.6,53.2,30.06,West,270,2.2,-999.0,60,-99.99,,,0.00,Acu-Link.com,2013-06-22 08:56:00,
2013-06-22 05:11:00,67.3,52.9,30.07,NNE,22,2.7,-999.0,60,-99.99,,,0.00,Acu-Link.com,2013-06-22 09:11:00,
2013-06-22 05:26:00,67.1,52.7,30.07,SSE,157,3.2,-999.0,60,-99.99,,,0.00,Acu-Link.com,2013-06-22 09:26:00,
2013-06-22 05:41:00,67.1,54.1,30.07,West,270,2.2,-999.0,63,-99.99,,,0.00,Acu-Link.com,2013-06-22 09:41:00,
2013-06-22 05:56:00,66.9,54.7,30.08,West,270,1.7,-999.0,65,-99.99,,,0.00,Acu-Link.com,2013-06-22 09:56:00,
2013-06-22 06:12:00,66.7,55.4,30.08,SE,135,2.7,-999.0,67,-99.99,,,0.00,Acu-Link.com,2013-06-22 10:12:00,
2013-06-22 06:27:00,66.7,56.2,30.07,West,270,4.7,-999.0,69,-99.99,,,0.00,Acu-Link.com,2013-06-22 10:27:00,
2013-06-22 06:42:00,66.6,57.3,30.07,West,270,3.2,-999.0,72,-99.99,,,0.00,Acu-Link.com,2013-06-22 10:42:00,
2013-06-22 06:57:00,66.6,58.0,30.06,WSW,247,3.7,-999.0,74,-99.99,,,0.00,Acu-Link.com,2013-06-22 10:57:00,
2013-06-22 07:13:00,66.4,57.9,30.06,West,270,5.3,-999.0,74,-99.99,,,0.00,Acu-Link.com,2013-06-22 11:13:00,
2013-06-22 07:28:00,67.1,56.6,30.06,WSW,247,4.2,-999.0,69,-99.99,,,0.00,Acu-Link.com,2013-06-22 11:28:00,
2013-06-22 07:43:00,67.8,56.8,30.06,West,270,4.2,-999.0,68,-99.99,,,0.00,Acu-Link.com,2013-06-22 11:43:00,
2013-06-22 07:58:00,68.4,57.0,30.07,NNW,337,3.7,-999.0,67,-99.99,,,0.00,Acu-Link.com,2013-06-22 11:58:00,
2013-06-22 08:14:00,68.7,57.3,30.07,West,270,4.2,-999.0,67,-99.99,,,0.00,Acu-Link.com,2013-06-22 12:14:00,
2013-06-22 08:29:00,69.1,57.7,30.07,West,270,3.7,-999.0,67,-99.99,,,0.00,Acu-Link.com,2013-06-22 12:29:00,
2013-06-22 08:44:00,69.6,57.7,30.08,West,270,3.7,-999.0,66,-99.99,,,0.00,Acu-Link.com,2013-06-22 12:44:00,
2013-06-22 08:59:00,70.2,57.0,30.08,WNW,292,3.7,-999.0,63,-99.99,,,0.00,Acu-Link.com,2013-06-22 12:59:00,
2013-06-22 09:14:00,70.9,56.8,30.08,WSW,247,4.7,-999.0,61,-99.99,,,0.00,Acu-Link.com,2013-06-22 13:14:00,
2013-06-22 09:30:00,71.4,58.1,30.08,West,270,5.3,-999.0,63,-99.99,,,0.00,Acu-Link.com,2013-06-22 13:30:00,
2013-06-22 09:45:00,72.1,59.2,30.07,NNW,337,1.7,-999.0,64,-99.99,,,0.00,Acu-Link.com,2013-06-22 13:45:00,
2013-06-22 10:00:00,72.7,59.8,30.08,NNE,22,1.7,-999.0,64,-99.99,,,0.00,Acu-Link.com,2013-06-22 14:00:00,
2013-06-22 10:15:00,74.1,60.7,30.08,NW,315,1.7,-999.0,63,-99.99,,,0.00,Acu-Link.com,2013-06-22 14:15:00,
2013-06-22 10:30:00,75.2,61.3,30.08,WSW,247,3.2,-999.0,62,-99.99,,,0.00,Acu-Link.com,2013-06-22 14:30:00,
2013-06-22 10:45:00,76.1,62.1,30.08,West,270,5.3,-999.0,62,-99.99,,,0.00,Acu-Link.com,2013-06-22 14:45:00,
2013-06-22 11:00:00,76.5,62.0,30.08,NW,315,4.2,-999.0,61,-99.99,,,0.00,Acu-Link.com,2013-06-22 15:00:00,
2013-06-22 11:15:00,77.7,61.7,30.08,WSW,247,3.2,-999.0,58,-99.99,,,0.00,Acu-Link.com,2013-06-22 15:15:00,
2013-06-22 11:31:00,79.2,62.1,30.08,NNW,337,1.7,-999.0,56,-99.99,,,0.00,Acu-Link.com,2013-06-22 15:31:00,
2013-06-22 11:46:00,79.3,62.2,30.09,SSW,202,0.0,-999.0,56,-99.99,,,0.00,Acu-Link.com,2013-06-22 15:46:00,
2013-06-22 12:01:00,79.7,62.1,30.09,West,270,4.2,-999.0,55,-99.99,,,0.00,Acu-Link.com,2013-06-22 16:01:00,
2013-06-22 12:16:00,80.4,62.2,30.08,NW,315,3.2,-999.0,54,-99.99,,,0.00,Acu-Link.com,2013-06-22 16:16:00,
2013-06-22 12:32:00,81.1,60.7,30.08,WNW,292,1.7,-999.0,50,-99.99,,,0.00,Acu-Link.com,2013-06-22 16:32:00,
2013-06-22 12:47:00,82.2,59.9,30.07,West,270,2.2,-999.0,47,-99.99,,,0.00,Acu-Link.com,2013-06-22 16:47:00,
2013-06-22 13:02:00,82.8,59.9,30.06,NE,45,3.7,-999.0,46,-99.99,,,0.00,Acu-Link.com,2013-06-22 17:02:00,
2013-06-22 13:17:00,83.1,60.8,30.05,West,270,5.8,-999.0,47,-99.99,,,0.00,Acu-Link.com,2013-06-22 17:17:00,
2013-06-22 13:33:00,83.3,59.7,30.04,WSW,247,2.7,-999.0,45,-99.99,,,0.00,Acu-Link.com,2013-06-22 17:33:00,
2013-06-22 13:48:00,83.7,61.3,30.04,West,270,3.7,-999.0,47,-99.99,,,0.00,Acu-Link.com,2013-06-22 17:48:00,
2013-06-22 14:03:00,83.8,60.8,30.03,West,270,6.8,-999.0,46,-99.99,,,0.00,Acu-Link.com,2013-06-22 18:03:00,
2013-06-22 14:18:00,83.5,62.3,30.04,West,270,5.3,-999.0,49,-99.99,,,0.00,Acu-Link.com,2013-06-22 18:18:00,
2013-06-22 14:34:00,83.5,63.4,30.03,West,270,4.2,-999.0,51,-99.99,,,0.00,Acu-Link.com,2013-06-22 18:34:00,
2013-06-22 14:49:00,82.9,62.9,30.03,SSE,157,1.7,-999.0,51,-99.99,,,0.00,Acu-Link.com,2013-06-22 18:49:00,
2013-06-22 15:04:00,83.3,62.7,30.03,West,270,6.3,-999.0,50,-99.99,,,0.00,Acu-Link.com,2013-06-22 19:04:00,
2013-06-22 15:19:00,84.4,62.5,30.02,West,270,4.2,-999.0,48,-99.99,,,0.00,Acu-Link.com,2013-06-22 19:19:00,
2013-06-22 15:34:00,84.7,62.8,30.01,West,270,9.4,-999.0,48,-99.99,,,0.00,Acu-Link.com,2013-06-22 19:34:00,
2013-06-22 15:49:00,85.5,64.1,30.00,East,90,3.2,-999.0,49,-99.99,,,0.00,Acu-Link.com,2013-06-22 19:49:00,
2013-06-22 16:04:00,84.0,63.9,30.00,East,90,2.7,-999.0,51,-99.99,,,0.00,Acu-Link.com,2013-06-22 20:04:00,
2013-06-22 16:19:00,83.3,62.1,29.99,East,90,2.7,-999.0,49,-99.99,,,0.00,Acu-Link.com,2013-06-22 20:19:00,
2013-06-22 16:35:00,84.0,62.2,29.99,ESE,112,3.7,-999.0,48,-99.99,,,0.00,Acu-Link.com,2013-06-22 20:35:00,
2013-06-22 16:50:00,82.4,62.4,29.98,ESE,112,2.7,-999.0,51,-99.99,,,0.00,Acu-Link.com,2013-06-22 20:50:00,
2013-06-22 17:05:00,82.4,62.4,29.98,NW,315,6.3,-999.0,51,-99.99,,,0.00,Acu-Link.com,2013-06-22 21:05:00,
2013-06-22 17:20:00,81.3,61.4,29.98,ESE,112,5.8,-999.0,51,-99.99,,,0.00,Acu-Link.com,2013-06-22 21:20:00,
2013-06-22 17:35:00,80.8,61.5,29.98,East,90,3.2,-999.0,52,-99.99,,,0.00,Acu-Link.com,2013-06-22 21:35:00,
2013-06-22 17:51:00,81.0,61.7,29.97,East,90,3.7,-999.0,52,-99.99,,,0.00,Acu-Link.com,2013-06-22 21:51:00,
2013-06-22 18:06:00,82.2,61.7,29.98,ENE,67,2.2,-999.0,50,-99.99,,,0.00,Acu-Link.com,2013-06-22 22:06:00,
2013-06-22 18:21:00,81.0,61.7,29.97,North,0,3.2,-999.0,52,-99.99,,,0.00,Acu-Link.com,2013-06-22 22:21:00,
2013-06-22 18:36:00,79.5,60.8,29.97,SSE,157,1.1,-999.0,53,-99.99,,,0.00,Acu-Link.com,2013-06-22 22:36:00,
2013-06-22 18:51:00,78.3,60.3,29.96,ESE,112,2.7,-999.0,54,-99.99,,,0.00,Acu-Link.com,2013-06-22 22:51:00,
2013-06-22 19:06:00,77.5,58.5,29.96,ESE,112,3.7,-999.0,52,-99.99,,,0.00,Acu-Link.com,2013-06-22 23:06:00,
2013-06-22 19:22:00,76.8,57.3,29.96,ESE,112,2.7,-999.0,51,-99.99,,,0.00,Acu-Link.com,2013-06-22 23:22:00,
2013-06-22 19:37:00,76.8,57.3,29.97,ESE,112,2.7,-999.0,51,-99.99,,,0.00,Acu-Link.com,2013-06-22 23:37:00,
2013-06-22 19:52:00,75.7,56.3,29.97,ESE,112,2.7,-999.0,51,-99.99,,,0.00,Acu-Link.com,2013-06-22 23:52:00,
2013-06-22 20:07:00,75.2,56.9,29.96,East,90,1.7,-999.0,53,-99.99,,,0.00,Acu-Link.com,2013-06-23 00:07:00,
2013-06-22 20:22:00,75.0,56.2,29.96,ESE,112,2.7,-999.0,52,-99.99,,,0.00,Acu-Link.com,2013-06-23 00:22:00,
2013-06-22 20:38:00,74.3,55.5,29.96,North,0,4.7,-999.0,52,-99.99,,,0.00,Acu-Link.com,2013-06-23 00:38:00,
2013-06-22 20:53:00,74.3,56.6,29.97,ESE,112,1.7,-999.0,54,-99.99,,,0.00,Acu-Link.com,2013-06-23 00:53:00,
2013-06-22 21:08:00,74.1,56.4,29.98,ESE,112,2.7,-999.0,54,-99.99,,,0.00,Acu-Link.com,2013-06-23 01:08:00,
2013-06-22 21:24:00,73.8,56.1,29.99,East,90,1.7,-999.0,54,-99.99,,,0.00,Acu-Link.com,2013-06-23 01:24:00,
2013-06-22 21:39:00,73.8,56.1,29.99,ESE,112,2.7,-999.0,54,-99.99,,,0.00,Acu-Link.com,2013-06-23 01:39:00,
2013-06-22 21:54:00,73.8,55.6,30.00,East,90,1.7,-999.0,53,-99.99,,,0.00,Acu-Link.com,2013-06-23 01:54:00,
2013-06-22 22:10:00,73.8,55.1,30.00,East,90,2.2,-999.0,52,-99.99,,,0.00,Acu-Link.com,2013-06-23 02:10:00,
2013-06-22 22:25:00,73.4,55.7,30.00,NNE,22,3.2,-999.0,54,-99.99,,,0.00,Acu-Link.com,2013-06-23 02:25:00,
2013-06-22 22:40:00,73.6,56.9,30.01,East,90,0.0,-999.0,56,-99.99,,,0.00,Acu-Link.com,2013-06-23 02:40:00,
2013-06-22 22:55:00,73.6,57.9,30.00,West,270,3.2,-999.0,58,-99.99,,,0.00,Acu-Link.com,2013-06-23 02:55:00,
2013-06-22 23:10:00,73.6,60.2,30.00,WSW,247,2.7,-999.0,63,-99.99,,,0.00,Acu-Link.com,2013-06-23 03:10:00,
2013-06-22 23:26:00,73.2,60.7,30.00,West,270,2.2,-999.0,65,-99.99,,,0.00,Acu-Link.com,2013-06-23 03:26:00,
2013-06-22 23:41:00,73.0,61.0,30.00,WNW,292,3.7,-999.0,66,-99.99,,,0.00,Acu-Link.com,2013-06-23 03:41:00,
2013-06-22 23:56:00,72.5,61.3,30.01,West,270,5.3,-999.0,68,-99.99,,,0.00,Acu-Link.com,2013-06-23 03:56:00,